Time;durP1;ratioP1;P1;durP2;ratioP2;P2;SDS_P1;SDS_P2;PMS_P1;PMS_P2;Temp;Humidity;BMP_temperature;BMP_pressure;BME280_temperature;BME280_humidity;BME280_pressure;Samples;Min_cycle;Max_cycle;Signal;HPM_P1;HPM_P2
2023/05/11 00:01:47;;;;;;;5.45;2.90;;;26.60;99.90;;;;;;4993124;23;20134;-51
2023/05/11 00:04:13;;;;;;;4.65;2.90;;;26.60;99.90;;;;;;4956286;28;20042;-51
2023/05/11 00:06:38;;;;;;;6.05;3.15;;;26.70;99.90;;;;;;4956205;28;20474;-51
2023/05/11 00:09:04;;;;;;;5.00;3.00;;;26.60;99.90;;;;;;4956374;28;20023;-51
2023/05/11 00:11:30;;;;;;;7.28;2.90;;;26.60;99.90;;;;;;4955816;28;20023;-51
2023/05/11 00:13:56;;;;;;;5.03;3.17;;;26.70;99.90;;;;;;4956221;28;20020;-50
2023/05/11 00:16:22;;;;;;;9.25;4.13;;;26.60;99.90;;;;;;4956017;28;20034;-51
2023/05/11 00:18:48;;;;;;;6.55;3.42;;;26.60;99.90;;;;;;4955962;28;20378;-51
2023/05/11 00:21:13;;;;;;;5.47;3.65;;;26.60;99.90;;;;;;4955967;28;20023;-51
2023/05/11 00:23:39;;;;;;;7.55;3.85;;;26.60;99.90;;;;;;4954946;28;20035;-51
2023/05/11 00:26:05;;;;;;;7.75;3.65;;;26.60;99.90;;;;;;4955921;28;20034;-51
2023/05/11 00:28:31;;;;;;;8.55;3.35;;;26.60;99.90;;;;;;4955629;28;20035;-52
2023/05/11 00:30:57;;;;;;;7.15;4.20;;;26.60;99.90;;;;;;4955937;28;20019;-51
2023/05/11 00:33:23;;;;;;;6.55;3.60;;;26.60;99.90;;;;;;4955744;28;20027;-53
2023/05/11 00:35:50;;;;;;;7.00;3.97;;;26.60;99.90;;;;;;4955884;28;20071;-52
2023/05/11 00:38:15;;;;;;;8.02;3.80;;;26.60;99.90;;;;;;4968298;28;20038;-51
2023/05/11 00:40:41;;;;;;;4.93;3.38;;;26.60;99.90;;;;;;4955626;28;20382;-52
2023/05/11 00:43:07;;;;;;;8.88;4.10;;;26.60;99.90;;;;;;4955331;28;20082;-52
2023/05/11 00:45:34;;;;;;;6.93;4.15;;;26.60;99.90;;;;;;4955670;28;20030;-52
2023/05/11 00:48:00;;;;;;;9.65;3.92;;;26.60;99.90;;;;;;4955473;28;20031;-53
2023/05/11 00:50:27;;;;;;;5.30;3.42;;;26.60;99.90;;;;;;4955518;28;20083;-52
2023/05/11 00:52:54;;;;;;;6.47;4.10;;;26.60;99.90;;;;;;4955509;28;20019;-52
2023/05/11 00:55:20;;;;;;;5.68;3.60;;;26.60;99.90;;;;;;4955163;28;20481;-52
2023/05/11 00:57:46;;;;;;;7.88;4.70;;;26.60;99.90;;;;;;4953971;28;20035;-52
2023/05/11 01:00:12;;;;;;;6.60;3.70;;;26.60;99.90;;;;;;4955662;28;20031;-52
2023/05/11 01:02:39;;;;;;;7.80;4.70;;;26.60;99.90;;;;;;4953742;28;20047;-52
2023/05/11 01:05:05;;;;;;;7.88;3.90;;;26.50;99.90;;;;;;4955047;28;20022;-52
2023/05/11 01:07:55;;;;;;;8.07;4.20;;;26.50;99.90;;;;;;4955358;28;20101;-52
2023/05/11 01:10:35;;;;;;;7.25;3.97;;;26.50;99.90;;;;;;4954814;28;20098;-52
2023/05/11 01:13:15;;;;;;;7.78;4.35;;;26.50;99.90;;;;;;4955183;28;20026;-53
2023/05/11 01:15:50;;;;;;;4.68;3.55;;;26.50;99.90;;;;;;4955050;28;20474;-52
2023/05/11 01:18:51;;;;;;;6.30;4.05;;;26.50;99.90;;;;;;4954905;28;20498;-52
2023/05/11 01:21:17;;;;;;;6.10;4.22;;;26.50;99.90;;;;;;4954802;29;20381;-52
2023/05/11 01:24:11;;;;;;;6.55;3.72;;;26.50;99.90;;;;;;4954943;28;20378;-52
2023/05/11 01:26:56;;;;;;;7.57;4.28;;;26.50;99.90;;;;;;4954748;28;20023;-52
2023/05/11 01:29:28;;;;;;;7.45;4.78;;;26.50;99.90;;;;;;4954742;28;20042;-52
2023/05/11 01:31:56;;;;;;;6.93;4.20;;;26.50;99.90;;;;;;4954637;28;20228;-52
2023/05/11 01:34:25;;;;;;;7.97;4.18;;;26.50;99.90;;;;;;4953360;28;20030;-52
2023/05/11 01:36:58;;;;;;;9.15;5.13;;;26.50;99.90;;;;;;4956297;28;20081;-52
2023/05/11 01:39:48;;;;;;;9.35;4.70;;;26.50;99.90;;;;;;4962917;28;20070;-52
2023/05/11 01:42:15;;;;;;;7.47;4.72;;;26.50;99.90;;;;;;4954375;29;20105;-52
2023/05/11 01:44:47;;;;;;;8.95;4.93;;;26.50;99.90;;;;;;4954678;28;20031;-53
2023/05/11 01:47:15;;;;;;;10.45;5.35;;;26.50;99.90;;;;;;4954635;28;20027;-52
2023/05/11 01:49:43;;;;;;;8.23;5.18;;;26.50;99.90;;;;;;4954527;28;20023;-52
2023/05/11 01:52:10;;;;;;;6.72;5.00;;;26.50;99.90;;;;;;4954224;28;20369;-52
2023/05/11 01:54:37;;;;;;;11.68;5.10;;;26.50;99.90;;;;;;4954372;28;20042;-52
2023/05/11 01:57:03;;;;;;;;;;;26.40;99.90;;;;;;4954610;28;20100;-52
2023/05/11 01:59:30;;;;;;;9.88;5.55;;;26.40;99.90;;;;;;4954241;29;19921;-52
2023/05/11 02:01:57;;;;;;;11.40;5.43;;;26.40;99.90;;;;;;4981630;23;20393;-46
2023/05/11 02:04:24;;;;;;;9.73;5.18;;;26.50;99.90;;;;;;4973483;28;20031;-46
2023/05/11 02:06:52;;;;;;;10.48;5.70;;;26.40;99.90;;;;;;4973204;28;20130;-47
2023/05/11 02:09:18;;;;;;;;;;;26.40;99.90;;;;;;4973876;28;20137;-46
2023/05/11 02:11:48;;;;;;;7.30;5.28;;;26.40;99.90;;;;;;4973513;28;20400;-46
2023/05/11 02:14:17;;;;;;;7.88;5.40;;;26.40;99.90;;;;;;4973550;28;20413;-46
2023/05/11 02:16:45;;;;;;;8.18;4.93;;;26.40;99.90;;;;;;4973491;28;20019;-47
2023/05/11 02:19:13;;;;;;;8.90;5.28;;;26.40;99.90;;;;;;4973301;28;20474;-47
2023/05/11 02:21:40;;;;;;;6.82;5.25;;;26.40;99.90;;;;;;4973478;28;20089;-47
2023/05/11 02:24:06;;;;;;;;;;;26.40;99.90;;;;;;4973912;28;20416;-47
2023/05/11 02:26:32;;;;;;;8.40;5.38;;;26.40;99.90;;;;;;4973038;28;19913;-47
2023/05/11 02:28:58;;;;;;;8.05;5.30;;;26.40;99.90;;;;;;4973305;28;20026;-47
2023/05/11 02:31:28;;;;;;;7.68;4.75;;;26.40;99.90;;;;;;4973203;28;20026;-47
2023/05/11 02:34:19;;;;;;;6.50;4.85;;;26.40;99.90;;;;;;4973219;28;20142;-47
2023/05/11 02:36:48;;;;;;;8.55;5.00;;;26.40;99.90;;;;;;4970824;28;20062;-47
2023/05/11 02:39:20;;;;;;;9.68;5.40;;;26.40;99.90;;;;;;4963171;28;20066;-47
2023/05/11 02:41:54;;;;;;;9.57;5.18;;;26.40;99.90;;;;;;4973067;28;20521;-47
2023/05/11 02:44:23;;;;;;;8.60;5.30;;;26.30;99.90;;;;;;4973149;28;20503;-47
2023/05/11 02:46:51;;;;;;;9.07;5.03;;;26.30;99.90;;;;;;4973331;28;20041;-47
2023/05/11 02:49:22;;;;;;;7.90;4.20;;;26.30;99.90;;;;;;4975967;28;20110;-47
2023/05/11 02:51:49;;;;;;;8.88;4.45;;;26.30;99.90;;;;;;4964159;28;20106;-46
2023/05/11 02:54:17;;;;;;;8.35;5.53;;;26.30;99.90;;;;;;4977100;28;20027;-47
2023/05/11 02:56:43;;;;;;;10.52;4.93;;;26.30;99.90;;;;;;4976621;28;20113;-46
2023/05/11 02:59:10;;;;;;;8.33;4.87;;;26.30;99.90;;;;;;4976671;28;20041;-46
2023/05/11 03:01:38;;;;;;;7.38;4.40;;;26.30;99.90;;;;;;4983434;23;20337;-53
2023/05/11 03:04:04;;;;;;;7.88;4.72;;;26.30;99.90;;;;;;4957512;28;20031;-53
2023/05/11 03:06:30;;;;;;;9.15;4.80;;;26.30;99.90;;;;;;4957784;28;20078;-51
2023/05/11 03:08:56;;;;;;;6.45;4.70;;;26.30;99.90;;;;;;4956020;28;20054;-51
2023/05/11 03:11:24;;;;;;;8.05;4.68;;;26.30;99.90;;;;;;4957151;28;20031;-52
2023/05/11 03:13:51;;;;;;;9.00;4.05;;;26.30;99.90;;;;;;4957298;28;20505;-52
2023/05/11 03:16:18;;;;;;;11.23;4.30;;;26.30;99.90;;;;;;4957487;28;20110;-52
2023/05/11 03:18:45;;;;;;;7.50;4.65;;;26.30;99.90;;;;;;4956859;28;20027;-52
2023/05/11 03:21:13;;;;;;;12.05;4.93;;;26.30;99.90;;;;;;4956989;28;20122;-51
2023/05/11 03:23:40;;;;;;;8.05;4.15;;;26.30;99.90;;;;;;4955718;28;20441;-52
2023/05/11 03:26:06;;;;;;;7.97;4.05;;;26.20;99.90;;;;;;4956901;28;20484;-52
2023/05/11 03:28:34;;;;;;;9.73;3.95;;;26.20;99.90;;;;;;4956823;28;20473;-51
2023/05/11 03:31:00;;;;;;;5.97;4.18;;;26.30;99.90;;;;;;4956984;28;20470;-52
2023/05/11 03:33:26;;;;;;;6.07;3.88;;;26.20;99.90;;;;;;4955488;28;20036;-51
2023/05/11 03:35:53;;;;;;;5.90;3.85;;;26.30;99.90;;;;;;4956826;28;20020;-51
2023/05/11 03:38:21;;;;;;;6.55;3.95;;;26.20;99.90;;;;;;4969675;28;20114;-52
2023/05/11 03:40:48;;;;;;;13.63;4.43;;;26.20;99.90;;;;;;4956888;28;20027;-52
2023/05/11 03:43:18;;;;;;;7.68;4.53;;;26.20;99.90;;;;;;4957772;28;20027;-51
2023/05/11 03:45:45;;;;;;;8.20;4.20;;;26.20;99.90;;;;;;4967802;28;20023;-52
2023/05/11 03:48:15;;;;;;;7.00;3.80;;;26.20;99.90;;;;;;4956473;28;20413;-52
2023/05/11 03:50:42;;;;;;;8.68;4.25;;;26.20;99.90;;;;;;4956412;28;20023;-52
2023/05/11 03:53:09;;;;;;;6.80;3.95;;;26.20;99.90;;;;;;4956357;28;20532;-51
2023/05/11 03:55:36;;;;;;;7.45;4.07;;;26.20;99.90;;;;;;4956426;28;20130;-52
2023/05/11 03:58:07;;;;;;;5.93;3.70;;;26.20;99.90;;;;;;4955716;28;20042;-52
2023/05/11 04:00:40;;;;;;;6.15;4.03;;;26.20;99.90;;;;;;4956225;28;20526;-52
2023/05/11 04:03:06;;;;;;;6.45;4.00;;;26.20;99.90;;;;;;4956118;28;20031;-52
2023/05/11 04:05:32;;;;;;;5.80;3.70;;;26.20;99.90;;;;;;4956294;28;20019;-52
2023/05/11 04:07:58;;;;;;;6.00;3.60;;;26.20;99.90;;;;;;4955933;28;20643;-53
2023/05/11 04:10:25;;;;;;;5.82;3.70;;;26.20;99.90;;;;;;4956321;28;20104;-52
2023/05/11 04:12:51;;;;;;;5.72;3.53;;;26.20;99.90;;;;;;4956447;28;20083;-52
2023/05/11 04:15:17;;;;;;;7.03;3.90;;;26.10;99.90;;;;;;4955844;28;20020;-52
2023/05/11 04:17:43;;;;;;;10.25;3.90;;;26.10;99.90;;;;;;4954659;28;20110;-52
2023/05/11 04:20:09;;;;;;;5.80;3.60;;;26.20;99.90;;;;;;4955874;29;20055;-52
2023/05/11 04:22:35;;;;;;;7.85;4.53;;;26.10;99.90;;;;;;4956128;28;20031;-52
2023/05/11 04:25:00;;;;;;;9.00;4.70;;;26.10;99.90;;;;;;4955734;28;20034;-52
2023/05/11 04:27:26;;;;;;;6.80;4.15;;;26.10;99.90;;;;;;4955803;28;20049;-52
2023/05/11 04:29:52;;;;;;;8.55;3.55;;;26.10;99.90;;;;;;4954573;28;20024;-52
2023/05/11 04:32:18;;;;;;;7.13;3.72;;;26.10;99.90;;;;;;4955585;29;20028;-52
2023/05/11 04:34:43;;;;;;;6.05;3.50;;;26.10;99.90;;;;;;4955704;28;20023;-52
2023/05/11 04:37:09;;;;;;;5.90;3.47;;;26.10;99.90;;;;;;4955942;28;20031;-52
2023/05/11 04:39:35;;;;;;;6.68;3.60;;;26.10;99.90;;;;;;4955400;28;20504;-52
2023/05/11 04:42:01;;;;;;;7.30;4.00;;;26.10;99.90;;;;;;4955772;28;20027;-52
2023/05/11 04:44:27;;;;;;;5.40;3.40;;;26.10;99.90;;;;;;4955271;28;20042;-52
2023/05/11 04:46:56;;;;;;;6.45;3.40;;;26.10;99.90;;;;;;4955571;28;20149;-52
2023/05/11 04:49:22;;;;;;;5.93;3.85;;;26.10;99.90;;;;;;4954430;28;20042;-52
2023/05/11 04:51:48;;;;;;;5.78;3.67;;;26.10;99.90;;;;;;4955255;28;20019;-52
2023/05/11 04:54:14;;;;;;;6.80;3.60;;;26.10;99.90;;;;;;4954183;29;20035;-52
2023/05/11 04:56:40;;;;;;;8.05;3.58;;;26.10;99.90;;;;;;4955292;28;20030;-51
2023/05/11 04:59:06;;;;;;;6.13;3.60;;;26.10;99.90;;;;;;4955114;29;20070;-52
2023/05/11 05:01:32;;;;;;;5.43;3.35;;;26.10;99.90;;;;;;4954927;28;20043;-52
2023/05/11 05:03:57;;;;;;;7.03;3.95;;;26.10;99.90;;;;;;4955157;28;20027;-52
2023/05/11 05:06:23;;;;;;;5.18;3.38;;;26.10;99.90;;;;;;4955343;28;20019;-52
2023/05/11 05:08:49;;;;;;;8.02;4.18;;;26.10;99.90;;;;;;4955080;28;20054;-52
2023/05/11 05:11:15;;;;;;;5.63;3.20;;;26.10;99.90;;;;;;4954438;28;20094;-53
2023/05/11 05:13:41;;;;;;;6.82;3.30;;;26.10;99.90;;;;;;4953513;28;20031;-52
2023/05/11 05:16:06;;;;;;;8.68;3.60;;;26.10;99.90;;;;;;4954889;28;20031;-52
2023/05/11 05:18:32;;;;;;;5.35;2.97;;;26.10;99.90;;;;;;4954683;28;20023;-52
2023/05/11 05:20:58;;;;;;;8.27;3.30;;;26.10;99.90;;;;;;4954913;28;20061;-52
2023/05/11 05:23:24;;;;;;;7.82;3.28;;;26.10;99.90;;;;;;4953612;28;20028;-52
2023/05/11 05:25:50;;;;;;;6.13;3.22;;;26.10;99.90;;;;;;4954573;28;20035;-52
2023/05/11 05:28:16;;;;;;;6.05;2.85;;;26.00;99.90;;;;;;4955829;28;20381;-52
2023/05/11 05:30:42;;;;;;;7.22;3.17;;;26.00;99.90;;;;;;4966607;28;20023;-53
2023/05/11 05:33:08;;;;;;;3.78;2.42;;;26.00;99.90;;;;;;4954435;28;20033;-52
2023/05/11 05:35:34;;;;;;;5.57;3.08;;;26.00;99.90;;;;;;4954639;28;20019;-52
2023/05/11 05:38:00;;;;;;;4.38;2.92;;;26.00;99.90;;;;;;4954463;28;20020;-52
2023/05/11 05:40:26;;;;;;;5.13;2.70;;;26.00;99.90;;;;;;4954654;28;20055;-52
2023/05/11 05:42:51;;;;;;;4.95;2.95;;;26.10;99.90;;;;;;4954439;28;20031;-52
2023/05/11 05:45:17;;;;;;;4.55;3.30;;;26.00;99.90;;;;;;4953070;29;20027;-52
2023/05/11 05:47:43;;;;;;;4.07;2.90;;;26.10;99.90;;;;;;4954594;28;20474;-52
2023/05/11 05:50:10;;;;;;;8.27;2.90;;;26.00;99.90;;;;;;4954147;28;20489;-52
2023/05/11 05:52:36;;;;;;;4.82;2.65;;;26.00;99.90;;;;;;4954322;28;20533;-52
2023/05/11 05:55:02;;;;;;;6.82;3.45;;;26.00;99.90;;;;;;4954104;28;20122;-52
2023/05/11 05:57:29;;;;;;;5.05;2.60;;;26.00;99.90;;;;;;4953155;28;20356;-52
2023/05/11 05:59:55;;;;;;;4.93;2.45;;;26.10;99.90;;;;;;4953987;28;20106;-52
2023/05/11 06:02:21;;;;;;;4.05;2.35;;;26.00;99.90;;;;;;4954012;28;20043;-52
2023/05/11 06:04:47;;;;;;;6.22;3.45;;;26.00;99.90;;;;;;4954180;28;20050;-53
2023/05/11 06:07:15;;;;;;;4.43;2.67;;;26.00;99.90;;;;;;4954204;28;20389;-53
2023/05/11 06:09:41;;;;;;;4.72;3.20;;;26.00;99.90;;;;;;4954069;28;20426;-53
2023/05/11 06:12:08;;;;;;;7.10;2.83;;;26.10;99.90;;;;;;4953961;28;20059;-53
2023/05/11 06:14:35;;;;;;;4.28;2.58;;;26.00;99.90;;;;;;4953905;28;20493;-53
2023/05/11 06:17:01;;;;;;;5.70;3.30;;;26.00;99.90;;;;;;4967056;28;20474;-52
2023/05/11 06:19:26;;;;;;;3.38;2.75;;;26.00;99.90;;;;;;4953882;28;20035;-52
2023/05/11 06:21:52;;;;;;;5.57;3.10;;;26.00;99.90;;;;;;4956242;28;20023;-52
2023/05/11 06:24:18;;;;;;;5.32;2.92;;;26.00;99.90;;;;;;4963666;28;20110;-53
2023/05/11 06:26:44;;;;;;;5.57;3.08;;;26.00;99.90;;;;;;4953751;28;20023;-53
2023/05/11 06:29:09;;;;;;;5.43;2.80;;;26.00;99.90;;;;;;4953703;28;20078;-52
2023/05/11 06:31:35;;;;;;;7.90;3.20;;;26.00;99.90;;;;;;4953793;28;20069;-53
2023/05/11 06:34:02;;;;;;;4.35;3.05;;;26.00;99.90;;;;;;4952738;28;20076;-53
2023/05/11 06:36:27;;;;;;;5.57;2.88;;;26.00;99.90;;;;;;4952587;29;20031;-53
2023/05/11 06:38:53;;;;;;;5.15;3.13;;;26.00;99.90;;;;;;4953640;28;20039;-53
2023/05/11 06:41:20;;;;;;;5.03;2.97;;;26.00;99.90;;;;;;4966119;28;20023;-52
2023/05/11 06:43:46;;;;;;;6.70;3.03;;;26.00;99.90;;;;;;4953924;28;20031;-53
2023/05/11 06:46:15;;;;;;;5.72;2.80;;;26.10;99.90;;;;;;4953663;28;20035;-53
2023/05/11 06:48:41;;;;;;;4.80;3.03;;;26.10;99.90;;;;;;4952490;28;20023;-53
2023/05/11 06:51:10;;;;;;;6.63;3.10;;;26.00;99.90;;;;;;4953625;28;20024;-53
2023/05/11 06:53:37;;;;;;;5.15;3.13;;;26.10;99.90;;;;;;4952342;28;20058;-53
2023/05/11 06:56:03;;;;;;;5.53;3.08;;;26.10;99.90;;;;;;4953703;28;20071;-53
2023/05/11 06:58:29;;;;;;;6.72;2.88;;;26.10;99.90;;;;;;4953563;28;20358;-53
2023/05/11 07:00:55;;;;;;;4.63;2.95;;;26.10;99.90;;;;;;4953514;28;20047;-53
2023/05/11 07:03:21;;;;;;;3.47;2.60;;;26.10;99.90;;;;;;4953260;28;20062;-53
2023/05/11 07:05:47;;;;;;;4.95;3.08;;;26.10;99.90;;;;;;4952427;28;20023;-53
2023/05/11 07:08:12;;;;;;;4.45;2.75;;;26.10;99.90;;;;;;4953438;28;20494;-54
2023/05/11 07:10:40;;;;;;;5.88;3.67;;;26.10;99.90;;;;;;4953305;28;20433;-53
2023/05/11 07:13:06;;;;;;;6.10;3.33;;;26.10;99.90;;;;;;4953558;28;20413;-53
2023/05/11 07:15:32;;;;;;;5.55;2.70;;;26.10;99.90;;;;;;4953647;28;20034;-53
2023/05/11 07:18:00;;;;;;;5.32;2.90;;;26.10;99.90;;;;;;4953284;28;20110;-52
2023/05/11 07:20:25;;;;;;;5.78;3.08;;;26.10;99.90;;;;;;4953403;28;20054;-52
2023/05/11 07:22:54;;;;;;;5.72;3.03;;;26.10;99.90;;;;;;4953421;28;20225;-52
2023/05/11 07:25:20;;;;;;;4.80;2.83;;;26.10;99.90;;;;;;4953150;28;20024;-53
2023/05/11 07:27:46;;;;;;;3.80;2.63;;;26.10;99.90;;;;;;4953378;28;20022;-53
2023/05/11 07:30:12;;;;;;;6.18;3.25;;;26.10;99.90;;;;;;4953255;28;20031;-52
2023/05/11 07:32:38;;;;;;;4.25;2.50;;;26.10;99.90;;;;;;4953417;28;20027;-53
2023/05/11 07:35:04;;;;;;;5.10;3.40;;;26.10;99.90;;;;;;4956853;28;20071;-52
2023/05/11 07:37:30;;;;;;;5.50;3.20;;;26.10;99.90;;;;;;4956757;28;20031;-52
2023/05/11 07:39:55;;;;;;;5.90;2.80;;;26.10;99.90;;;;;;4956458;28;20134;-53
2023/05/11 07:42:21;;;;;;;4.35;2.80;;;26.10;99.90;;;;;;4956800;28;20067;-52
2023/05/11 07:44:47;;;;;;;6.18;3.00;;;26.10;99.90;;;;;;4956562;28;20031;-52
2023/05/11 07:47:13;;;;;;;4.25;2.67;;;26.10;99.90;;;;;;4956279;28;20037;-52
2023/05/11 07:49:40;;;;;;;4.82;2.97;;;26.20;99.90;;;;;;4956374;28;20110;-53
2023/05/11 07:52:06;;;;;;;5.55;3.17;;;26.20;99.90;;;;;;4956504;29;20023;-52
2023/05/11 07:54:32;;;;;;;4.43;3.08;;;26.20;99.90;;;;;;4956320;28;20035;-53
2023/05/11 07:56:57;;;;;;;6.53;3.83;;;26.20;99.90;;;;;;4956033;28;20498;-52
2023/05/11 07:59:23;;;;;;;6.32;3.60;;;26.20;99.90;;;;;;4956288;29;20393;-52
2023/05/11 08:01:49;;;;;;;5.65;3.97;;;26.20;99.90;;;;;;4957866;28;20105;-53
2023/05/11 08:04:15;;;;;;;5.10;3.42;;;26.20;99.90;;;;;;4967352;28;20031;-53
2023/05/11 08:06:41;;;;;;;6.10;3.35;;;26.20;99.90;;;;;;4956141;28;20477;-52
2023/05/11 08:09:07;;;;;;;4.93;3.25;;;26.20;99.90;;;;;;4955112;28;20027;-52
2023/05/11 08:11:33;;;;;;;4.88;3.17;;;26.20;99.90;;;;;;4956063;28;20105;-52
2023/05/11 08:13:59;;;;;;;5.38;3.42;;;26.20;99.90;;;;;;4955966;28;20461;-52
2023/05/11 08:16:25;;;;;;;5.93;3.67;;;26.20;99.90;;;;;;4956107;28;20046;-52
2023/05/11 08:18:50;;;;;;;5.28;3.58;;;26.20;99.90;;;;;;4955854;28;20441;-52
2023/05/11 08:21:16;;;;;;;6.38;3.22;;;26.20;99.90;;;;;;4955942;28;20114;-52
2023/05/11 08:23:42;;;;;;;7.65;4.18;;;26.20;99.90;;;;;;4955661;28;20030;-53
2023/05/11 08:26:08;;;;;;;5.72;3.47;;;26.20;99.90;;;;;;4955990;28;20019;-52
2023/05/11 08:28:34;;;;;;;7.45;4.10;;;26.20;99.90;;;;;;4955811;28;20071;-53
2023/05/11 08:31:00;;;;;;;6.60;4.03;;;26.20;99.90;;;;;;4955800;28;20027;-53
2023/05/11 08:33:26;;;;;;;7.22;4.30;;;26.20;99.90;;;;;;4955584;28;20061;-53
2023/05/11 08:35:52;;;;;;;5.25;3.70;;;26.20;99.90;;;;;;4955747;28;20012;-53
2023/05/11 08:38:18;;;;;;;6.38;4.10;;;26.30;99.90;;;;;;4955348;28;20066;-53
2023/05/11 08:40:47;;;;;;;5.78;3.90;;;26.30;99.90;;;;;;4955542;28;20071;-52
2023/05/11 08:43:17;;;;;;;6.05;4.00;;;26.30;99.90;;;;;;4955499;28;20149;-53
2023/05/11 08:45:46;;;;;;;5.57;3.45;;;26.30;99.90;;;;;;4953710;28;20027;-52
2023/05/11 08:48:17;;;;;;;6.40;4.20;;;26.30;99.90;;;;;;4954341;28;20392;-52
2023/05/11 08:50:46;;;;;;;7.95;4.97;;;26.30;99.90;;;;;;4953983;28;20473;-52
2023/05/11 08:53:13;;;;;;;5.88;4.03;;;26.30;99.90;;;;;;4955332;28;20027;-52
2023/05/11 08:55:40;;;;;;;7.15;4.40;;;26.30;99.90;;;;;;4955497;28;20090;-53
2023/05/11 08:58:06;;;;;;;;;;;26.30;99.90;;;;;;4956215;28;20103;-52
2023/05/11 09:00:33;;;;;;;7.70;4.78;;;26.30;99.90;;;;;;4955154;28;20105;-52
2023/05/11 09:02:59;;;;;;;5.82;3.80;;;26.30;99.90;;;;;;4955110;28;20049;-53
2023/05/11 09:05:26;;;;;;;5.93;4.30;;;26.30;99.90;;;;;;4954717;28;20107;-53
2023/05/11 09:07:58;;;;;;;8.55;4.88;;;26.30;99.90;;;;;;4955255;28;20027;-53
2023/05/11 09:10:24;;;;;;;6.40;4.25;;;26.30;99.90;;;;;;4954925;28;20019;-53
2023/05/11 09:12:50;;;;;;;6.93;4.10;;;26.30;99.90;;;;;;4954998;28;20058;-53
2023/05/11 09:15:15;;;;;;;4.90;4.22;;;26.30;99.90;;;;;;4954703;28;20055;-53
2023/05/11 09:17:41;;;;;;;8.32;4.20;;;26.30;99.90;;;;;;4954982;28;20063;-53
2023/05/11 09:20:08;;;;;;;5.65;3.47;;;26.30;99.90;;;;;;4954675;28;20042;-52
2023/05/11 09:22:44;;;;;;;6.20;4.13;;;26.30;99.90;;;;;;4954914;28;20020;-53
2023/05/11 09:25:12;;;;;;;8.05;3.85;;;26.30;99.90;;;;;;4954974;28;20024;-53
2023/05/11 09:27:42;;;;;;;7.88;4.05;;;26.30;99.90;;;;;;4954651;28;20212;-53
2023/05/11 09:30:16;;;;;;;6.57;3.45;;;26.30;99.90;;;;;;4954487;28;20020;-53
2023/05/11 09:32:56;;;;;;;5.85;4.10;;;26.30;99.90;;;;;;4954781;28;20541;-53
2023/05/11 09:35:29;;;;;;;7.32;4.03;;;26.30;99.90;;;;;;4954601;28;20098;-53
2023/05/11 09:38:04;;;;;;;5.40;3.70;;;26.30;99.90;;;;;;4954207;28;20027;-53
2023/05/11 09:40:32;;;;;;;6.10;3.78;;;26.30;99.90;;;;;;4954540;28;20102;-53
2023/05/11 09:42:58;;;;;;;7.72;3.60;;;26.40;99.90;;;;;;4954446;28;20106;-52
2023/05/11 09:45:38;;;;;;;4.82;3.17;;;26.40;99.90;;;;;;4954292;28;20058;-53
2023/05/11 09:48:06;;;;;;;6.38;3.40;;;26.40;99.90;;;;;;4954713;28;20026;-53
2023/05/11 09:50:34;;;;;;;7.68;3.80;;;26.30;99.90;;;;;;4966721;28;20015;-53
2023/05/11 09:53:00;;;;;;;;;;;26.40;99.90;;;;;;4953332;28;20105;-53
2023/05/11 09:55:26;;;;;;;6.30;3.55;;;26.30;99.90;;;;;;4954045;28;20361;-53
2023/05/11 09:57:54;;;;;;;8.85;3.38;;;26.40;99.90;;;;;;4954231;28;20046;-52
2023/05/11 10:00:20;;;;;;;6.25;3.50;;;26.40;99.90;;;;;;4954211;28;20031;-53
2023/05/11 10:03:06;;;;;;;5.50;3.33;;;26.40;99.90;;;;;;4952530;29;20051;-53
2023/05/11 10:05:35;;;;;;;5.80;3.72;;;26.40;99.90;;;;;;4940912;29;20030;-53
2023/05/11 10:08:02;;;;;;;7.35;4.35;;;26.40;99.90;;;;;;4953940;28;20019;-53
2023/05/11 10:10:29;;;;;;;;;;;26.40;99.90;;;;;;4937946;28;20405;-53
2023/05/11 10:12:57;;;;;;;5.03;3.53;;;26.40;99.90;;;;;;4954106;28;19910;-53
2023/05/11 10:15:27;;;;;;;7.20;3.22;;;26.50;99.90;;;;;;4953842;28;20031;-53
2023/05/11 10:17:58;;;;;;;6.00;4.15;;;26.40;99.90;;;;;;4954003;28;20066;-53
2023/05/11 10:20:24;;;;;;;6.45;4.15;;;26.40;99.90;;;;;;4940017;29;20054;-53
2023/05/11 10:22:54;;;;;;;7.47;3.95;;;26.40;99.90;;;;;;4953862;28;20377;-53
2023/05/11 10:25:25;;;;;;;5.35;4.40;;;26.40;99.90;;;;;;4952517;28;20469;-54
2023/05/11 10:27:52;;;;;;;6.47;4.07;;;26.40;99.90;;;;;;4953781;28;20086;-53
2023/05/11 10:30:18;;;;;;;5.38;3.70;;;26.40;99.90;;;;;;4953989;28;20038;-53
2023/05/11 10:32:45;;;;;;;8.55;3.90;;;26.40;99.90;;;;;;4953869;28;20392;-53
2023/05/11 10:35:11;;;;;;;8.15;4.10;;;26.50;99.90;;;;;;4936633;29;20432;-53
2023/05/11 10:37:39;;;;;;;6.60;4.00;;;26.50;99.90;;;;;;4953789;28;20118;-53
2023/05/11 10:40:06;;;;;;;5.68;3.97;;;26.50;99.90;;;;;;4953575;28;20175;-53
2023/05/11 10:43:02;;;;;;;5.25;3.72;;;26.40;99.90;;;;;;4953786;28;20481;-53
2023/05/11 10:45:59;;;;;;;9.77;4.60;;;26.50;99.90;;;;;;4952083;28;20023;-53
2023/05/11 10:48:51;;;;;;;7.68;4.28;;;26.50;99.90;;;;;;4952049;28;20552;-53
2023/05/11 10:51:19;;;;;;;6.82;4.85;;;26.50;99.90;;;;;;4953741;28;20374;-53
2023/05/11 10:53:54;;;;;;;9.10;4.70;;;26.50;99.90;;;;;;4953649;28;20020;-53
2023/05/11 10:56:40;;;;;;;6.60;4.25;;;26.50;99.90;;;;;;4954017;28;20094;-52
2023/05/11 10:59:30;;;;;;;8.23;4.43;;;26.50;99.90;;;;;;4930918;29;20133;-53
2023/05/11 11:01:58;;;;;;;8.68;5.05;;;26.50;99.90;;;;;;4953148;28;20135;-53
2023/05/11 11:04:24;;;;;;;8.70;5.10;;;26.50;99.90;;;;;;4953536;28;20019;-53
2023/05/11 11:07:18;;;;;;;7.30;5.10;;;26.50;99.90;;;;;;4953516;29;20022;-53
2023/05/11 11:10:05;;;;;;;8.05;5.10;;;26.50;99.90;;;;;;4955883;28;20505;-52
2023/05/11 11:12:33;;;;;;;7.72;5.20;;;26.50;99.90;;;;;;4946864;29;20027;-53
2023/05/11 11:15:03;;;;;;;6.35;4.90;;;26.60;99.90;;;;;;4956853;28;20038;-54
2023/05/11 11:17:33;;;;;;;7.45;5.30;;;26.60;99.90;;;;;;4957054;28;20024;-53
2023/05/11 11:20:00;;;;;;;7.80;4.57;;;26.60;99.90;;;;;;4955704;28;20467;-53
2023/05/11 11:22:35;;;;;;;7.28;4.85;;;26.60;99.90;;;;;;4957045;28;20034;-53
2023/05/11 11:25:05;;;;;;;7.63;4.75;;;26.60;99.90;;;;;;4956813;28;20031;-53
2023/05/11 11:27:39;;;;;;;7.10;5.25;;;26.60;99.90;;;;;;4956895;28;20381;-53
2023/05/11 11:30:20;;;;;;;6.88;5.25;;;26.60;99.90;;;;;;4956868;28;20421;-53
2023/05/11 11:32:51;;;;;;;7.43;4.75;;;26.60;99.90;;;;;;4956405;28;20026;-53
2023/05/11 11:35:40;;;;;;;7.20;4.72;;;26.60;99.90;;;;;;4955593;29;20051;-52
2023/05/11 11:38:19;;;;;;;8.60;4.95;;;26.60;99.90;;;;;;4953563;28;20051;-53
2023/05/11 11:40:52;;;;;;;8.75;5.35;;;26.70;99.90;;;;;;4955427;28;20359;-52
2023/05/11 11:43:19;;;;;;;8.00;5.03;;;26.70;99.90;;;;;;4956716;28;20039;-53
2023/05/11 11:45:55;;;;;;;5.35;3.90;;;26.70;99.90;;;;;;4956557;28;20385;-53
2023/05/11 11:48:29;;;;;;;7.80;4.30;;;26.70;99.90;;;;;;4953587;29;20034;-52
2023/05/11 11:51:01;;;;;;;7.43;5.07;;;26.70;99.90;;;;;;4956045;28;20066;-52
2023/05/11 11:53:36;;;;;;;5.68;4.20;;;26.70;99.90;;;;;;4955396;28;20031;-53
2023/05/11 11:56:14;;;;;;;7.60;4.57;;;26.70;99.90;;;;;;4956530;28;20552;-53
2023/05/11 11:58:40;;;;;;;6.90;4.95;;;26.70;99.90;;;;;;4955241;28;20043;-52
2023/05/11 12:01:07;;;;;;;6.90;4.55;;;26.70;99.90;;;;;;4955706;28;20043;-58
2023/05/11 12:03:35;;;;;;;6.63;4.30;;;26.70;99.90;;;;;;4956089;28;20106;-53
2023/05/11 12:06:03;;;;;;;6.70;4.78;;;26.70;99.90;;;;;;4955741;28;20038;-52
2023/05/11 12:08:32;;;;;;;8.10;4.78;;;26.70;99.90;;;;;;4956141;28;20102;-52
2023/05/11 12:11:00;;;;;;;6.13;4.75;;;26.80;99.90;;;;;;4952318;29;20516;-53
2023/05/11 12:13:27;;;;;;;8.15;5.05;;;26.80;99.90;;;;;;4954840;29;20094;-53
2023/05/11 12:16:12;;;;;;;5.85;4.45;;;26.80;99.90;;;;;;4955972;28;20023;-53
2023/05/11 12:18:40;;;;;;;7.65;5.05;;;26.80;99.90;;;;;;4955767;28;20027;-53
2023/05/11 12:21:06;;;;;;;8.23;4.70;;;26.80;99.90;;;;;;4954649;28;20068;-53
2023/05/11 12:23:32;;;;;;;6.40;4.65;;;26.80;99.90;;;;;;4956119;28;20488;-53
2023/05/11 12:26:06;;;;;;;7.93;5.03;;;26.80;99.90;;;;;;4955661;28;20023;-55
2023/05/11 12:28:32;;;;;;;6.00;4.38;;;26.80;99.90;;;;;;4955756;28;20381;-53
2023/05/11 12:30:58;;;;;;;8.05;4.97;;;26.80;99.90;;;;;;4943171;28;20035;-53
2023/05/11 12:33:24;;;;;;;8.68;5.57;;;26.80;99.90;;;;;;4955962;28;20027;-53
2023/05/11 12:35:55;;;;;;;9.13;2.80;;;26.80;99.90;;;;;;4953970;29;20386;-53
2023/05/11 12:38:21;;;;;;;6.53;3.00;;;26.80;99.90;;;;;;4955642;28;20027;-53
2023/05/11 12:40:52;;;;;;;6.45;2.55;;;26.80;99.90;;;;;;4955492;28;20412;-53
2023/05/11 12:43:20;;;;;;;7.05;2.47;;;26.80;99.90;;;;;;4955252;28;20027;-53
2023/05/11 12:45:46;;;;;;;7.55;2.30;;;26.80;99.90;;;;;;4955581;28;20114;-53
2023/05/11 12:48:13;;;;;;;5.88;2.00;;;26.80;99.90;;;;;;4955131;28;20023;-52
2023/05/11 12:50:44;;;;;;;4.80;2.10;;;26.70;99.90;;;;;;4955072;28;20032;-54
2023/05/11 12:53:16;;;;;;;6.18;2.08;;;26.70;99.90;;;;;;4955117;28;20023;-53
2023/05/11 12:55:43;;;;;;;5.63;2.20;;;26.70;99.90;;;;;;4955187;28;20035;-54